sensor_id;sensor_type;location;lat;lon;timestamp;temperature;humidity
75865;HTU21D;64510;46.704;38.274;2023-06-10T00:01:43;20.87;66.61
75865;HTU21D;64510;46.704;38.274;2023-06-10T00:04:16;20.86;66.43
75865;HTU21D;64510;46.704;38.274;2023-06-10T00:06:45;20.85;66.51
75865;HTU21D;64510;46.704;38.274;2023-06-10T00:09:13;20.87;66.88
75865;HTU21D;64510;46.704;38.274;2023-06-10T00:11:40;20.83;66.77
75865;HTU21D;64510;46.704;38.274;2023-06-10T00:14:06;20.79;67.20
75865;HTU21D;64510;46.704;38.274;2023-06-10T00:16:33;20.79;67.35
75865;HTU21D;64510;46.704;38.274;2023-06-10T00:19:00;20.78;66.97
75865;HTU21D;64510;46.704;38.274;2023-06-10T00:21:27;20.75;67.07
75865;HTU21D;64510;46.704;38.274;2023-06-10T00:23:53;20.73;66.91
75865;HTU21D;64510;46.704;38.274;2023-06-10T00:26:23;20.72;66.45
75865;HTU21D;64510;46.704;38.274;2023-06-10T00:28:50;20.69;66.54
75865;HTU21D;64510;46.704;38.274;2023-06-10T00:31:17;20.65;67.03
75865;HTU21D;64510;46.704;38.274;2023-06-10T00:33:44;20.64;67.33
75865;HTU21D;64510;46.704;38.274;2023-06-10T00:36:10;20.61;67.62
75865;HTU21D;64510;46.704;38.274;2023-06-10T00:38:35;20.60;67.62
75865;HTU21D;64510;46.704;38.274;2023-06-10T00:41:01;20.57;68.07
75865;HTU21D;64510;46.704;38.274;2023-06-10T00:43:27;20.55;67.97
75865;HTU21D;64510;46.704;38.274;2023-06-10T00:45:53;20.49;67.97
75865;HTU21D;64510;46.704;38.274;2023-06-10T00:48:19;20.46;68.29
75865;HTU21D;64510;46.704;38.274;2023-06-10T00:50:47;20.43;68.37
75865;HTU21D;64510;46.704;38.274;2023-06-10T00:53:15;20.41;68.53
75865;HTU21D;64510;46.704;38.274;2023-06-10T00:55:41;20.39;68.39
75865;HTU21D;64510;46.704;38.274;2023-06-10T00:58:08;20.37;68.39
75865;HTU21D;64510;46.704;38.274;2023-06-10T01:00:35;20.35;68.46
75865;HTU21D;64510;46.704;38.274;2023-06-10T01:03:03;20.34;68.60
75865;HTU21D;64510;46.704;38.274;2023-06-10T01:05:39;20.36;68.97
75865;HTU21D;64510;46.704;38.274;2023-06-10T01:08:14;20.39;69.21
75865;HTU21D;64510;46.704;38.274;2023-06-10T01:11:00;20.36;69.16
75865;HTU21D;64510;46.704;38.274;2023-06-10T01:13:27;20.37;69.07
75865;HTU21D;64510;46.704;38.274;2023-06-10T01:15:58;20.36;69.04
75865;HTU21D;64510;46.704;38.274;2023-06-10T01:18:30;20.40;69.37
75865;HTU21D;64510;46.704;38.274;2023-06-10T01:20:57;20.40;69.49
75865;HTU21D;64510;46.704;38.274;2023-06-10T01:23:23;20.37;69.46
75865;HTU21D;64510;46.704;38.274;2023-06-10T01:25:55;20.39;69.65
75865;HTU21D;64510;46.704;38.274;2023-06-10T01:31:25;20.42;69.68
75865;HTU21D;64510;46.704;38.274;2023-06-10T01:34:00;20.37;69.44
75865;HTU21D;64510;46.704;38.274;2023-06-10T01:36:28;20.35;69.45
75865;HTU21D;64510;46.704;38.274;2023-06-10T01:38:55;20.34;69.65
75865;HTU21D;64510;46.704;38.274;2023-06-10T01:41:22;20.32;69.63
75865;HTU21D;64510;46.704;38.274;2023-06-10T01:43:49;20.32;69.66
75865;HTU21D;64510;46.704;38.274;2023-06-10T01:46:15;20.34;69.84
75865;HTU21D;64510;46.704;38.274;2023-06-10T01:48:45;20.30;69.65
75865;HTU21D;64510;46.704;38.274;2023-06-10T01:51:11;20.30;69.81
75865;HTU21D;64510;46.704;38.274;2023-06-10T01:53:37;20.31;70.06
75865;HTU21D;64510;46.704;38.274;2023-06-10T01:56:03;20.30;70.16
75865;HTU21D;64510;46.704;38.274;2023-06-10T01:58:29;20.30;70.33
75865;HTU21D;64510;46.704;38.274;2023-06-10T02:00:55;20.31;70.34
75865;HTU21D;64510;46.704;38.274;2023-06-10T02:03:21;20.30;70.64
75865;HTU21D;64510;46.704;38.274;2023-06-10T02:05:47;20.32;70.99
75865;HTU21D;64510;46.704;38.274;2023-06-10T02:08:15;20.32;71.36
75865;HTU21D;64510;46.704;38.274;2023-06-10T02:10:41;20.29;71.04
75865;HTU21D;64510;46.704;38.274;2023-06-10T02:13:07;20.29;71.08
75865;HTU21D;64510;46.704;38.274;2023-06-10T02:15:33;20.29;70.91
75865;HTU21D;64510;46.704;38.274;2023-06-10T02:17:59;20.28;70.78
75865;HTU21D;64510;46.704;38.274;2023-06-10T02:20:26;20.31;70.81
75865;HTU21D;64510;46.704;38.274;2023-06-10T02:22:52;20.34;70.71
75865;HTU21D;64510;46.704;38.274;2023-06-10T02:25:18;20.34;70.46
75865;HTU21D;64510;46.704;38.274;2023-06-10T02:27:44;20.31;70.69
75865;HTU21D;64510;46.704;38.274;2023-06-10T02:30:11;20.29;70.84
75865;HTU21D;64510;46.704;38.274;2023-06-10T02:32:37;20.29;71.00
75865;HTU21D;64510;46.704;38.274;2023-06-10T02:35:03;20.29;71.13
75865;HTU21D;64510;46.704;38.274;2023-06-10T02:37:30;20.31;71.44
75865;HTU21D;64510;46.704;38.274;2023-06-10T02:39:57;20.32;71.46
75865;HTU21D;64510;46.704;38.274;2023-06-10T02:42:23;20.34;71.37
75865;HTU21D;64510;46.704;38.274;2023-06-10T02:44:50;20.39;71.52
75865;HTU21D;64510;46.704;38.274;2023-06-10T02:47:26;20.41;71.42
75865;HTU21D;64510;46.704;38.274;2023-06-10T02:49:53;20.43;70.82
75865;HTU21D;64510;46.704;38.274;2023-06-10T02:52:19;20.43;70.68
75865;HTU21D;64510;46.704;38.274;2023-06-10T02:54:46;20.44;70.48
75865;HTU21D;64510;46.704;38.274;2023-06-10T02:57:13;20.49;70.51
75865;HTU21D;64510;46.704;38.274;2023-06-10T02:59:40;20.51;70.22
75865;HTU21D;64510;46.704;38.274;2023-06-10T03:02:07;20.59;70.19
75865;HTU21D;64510;46.704;38.274;2023-06-10T03:04:40;20.65;69.75
75865;HTU21D;64510;46.704;38.274;2023-06-10T03:07:12;20.64;69.60
75865;HTU21D;64510;46.704;38.274;2023-06-10T03:09:39;20.64;69.58
75865;HTU21D;64510;46.704;38.274;2023-06-10T03:12:09;20.64;69.80
75865;HTU21D;64510;46.704;38.274;2023-06-10T03:14:40;20.65;69.80
75865;HTU21D;64510;46.704;38.274;2023-06-10T03:17:06;20.62;69.92
75865;HTU21D;64510;46.704;38.274;2023-06-10T03:19:35;20.64;70.09
75865;HTU21D;64510;46.704;38.274;2023-06-10T03:22:14;20.66;69.88
75865;HTU21D;64510;46.704;38.274;2023-06-10T03:24:47;20.70;69.64
75865;HTU21D;64510;46.704;38.274;2023-06-10T03:27:16;20.72;69.46
75865;HTU21D;64510;46.704;38.274;2023-06-10T03:29:46;20.77;69.25
75865;HTU21D;64510;46.704;38.274;2023-06-10T03:32:12;20.79;69.29
75865;HTU21D;64510;46.704;38.274;2023-06-10T03:34:40;20.85;69.09
75865;HTU21D;64510;46.704;38.274;2023-06-10T03:37:07;20.85;69.07
75865;HTU21D;64510;46.704;38.274;2023-06-10T03:39:33;20.83;69.32
75865;HTU21D;64510;46.704;38.274;2023-06-10T03:42:01;20.84;69.10
75865;HTU21D;64510;46.704;38.274;2023-06-10T03:44:28;20.80;69.27
75865;HTU21D;64510;46.704;38.274;2023-06-10T03:46:55;20.79;69.50
75865;HTU21D;64510;46.704;38.274;2023-06-10T03:49:22;20.77;69.49
75865;HTU21D;64510;46.704;38.274;2023-06-10T03:51:55;20.74;69.61
75865;HTU21D;64510;46.704;38.274;2023-06-10T03:54:21;20.74;69.68
75865;HTU21D;64510;46.704;38.274;2023-06-10T03:56:47;20.72;69.78
75865;HTU21D;64510;46.704;38.274;2023-06-10T03:59:14;20.72;69.98
75865;HTU21D;64510;46.704;38.274;2023-06-10T04:01:40;20.71;70.08
75865;HTU21D;64510;46.704;38.274;2023-06-10T04:04:07;20.70;70.29
75865;HTU21D;64510;46.704;38.274;2023-06-10T04:06:34;20.77;70.36
75865;HTU21D;64510;46.704;38.274;2023-06-10T04:09:00;20.78;70.21
75865;HTU21D;64510;46.704;38.274;2023-06-10T04:11:27;20.78;70.48
75865;HTU21D;64510;46.704;38.274;2023-06-10T04:13:55;20.83;70.61
75865;HTU21D;64510;46.704;38.274;2023-06-10T04:16:21;20.86;70.60
75865;HTU21D;64510;46.704;38.274;2023-06-10T04:18:49;20.86;70.59
75865;HTU21D;64510;46.704;38.274;2023-06-10T04:21:16;20.87;70.45
75865;HTU21D;64510;46.704;38.274;2023-06-10T04:23:42;20.87;70.66
75865;HTU21D;64510;46.704;38.274;2023-06-10T04:26:09;20.94;70.56
75865;HTU21D;64510;46.704;38.274;2023-06-10T04:28:38;21.05;70.58
75865;HTU21D;64510;46.704;38.274;2023-06-10T04:31:04;21.17;70.29
75865;HTU21D;64510;46.704;38.274;2023-06-10T04:33:31;21.34;70.21
75865;HTU21D;64510;46.704;38.274;2023-06-10T04:35:57;21.62;69.55
75865;HTU21D;64510;46.704;38.274;2023-06-10T04:38:26;21.79;68.86
75865;HTU21D;64510;46.704;38.274;2023-06-10T04:40:52;21.93;68.14
75865;HTU21D;64510;46.704;38.274;2023-06-10T04:43:21;22.10;67.99
75865;HTU21D;64510;46.704;38.274;2023-06-10T04:45:47;22.31;67.08
75865;HTU21D;64510;46.704;38.274;2023-06-10T04:48:14;22.28;66.24
75865;HTU21D;64510;46.704;38.274;2023-06-10T04:50:39;22.32;66.43
75865;HTU21D;64510;46.704;38.274;2023-06-10T04:53:05;22.38;66.39
75865;HTU21D;64510;46.704;38.274;2023-06-10T04:55:34;22.41;65.65
75865;HTU21D;64510;46.704;38.274;2023-06-10T04:58:00;22.41;66.02
75865;HTU21D;64510;46.704;38.274;2023-06-10T05:00:26;22.54;65.41
75865;HTU21D;64510;46.704;38.274;2023-06-10T05:02:52;22.60;65.24
75865;HTU21D;64510;46.704;38.274;2023-06-10T05:05:18;22.68;64.88
75865;HTU21D;64510;46.704;38.274;2023-06-10T05:07:44;22.72;64.44
75865;HTU21D;64510;46.704;38.274;2023-06-10T05:10:10;22.73;64.40
75865;HTU21D;64510;46.704;38.274;2023-06-10T05:12:38;22.80;64.11
75865;HTU21D;64510;46.704;38.274;2023-06-10T05:15:06;22.88;64.05
75865;HTU21D;64510;46.704;38.274;2023-06-10T05:17:32;23.01;64.02
75865;HTU21D;64510;46.704;38.274;2023-06-10T05:19:58;23.29;63.63
75865;HTU21D;64510;46.704;38.274;2023-06-10T05:22:24;23.75;62.74
75865;HTU21D;64510;46.704;38.274;2023-06-10T05:24:50;24.28;61.32
75865;HTU21D;64510;46.704;38.274;2023-06-10T05:27:19;24.63;60.04
75865;HTU21D;64510;46.704;38.274;2023-06-10T05:29:45;24.95;59.45
75865;HTU21D;64510;46.704;38.274;2023-06-10T05:32:11;25.23;57.79
75865;HTU21D;64510;46.704;38.274;2023-06-10T05:34:37;25.32;57.32
75865;HTU21D;64510;46.704;38.274;2023-06-10T05:37:03;25.31;56.71
75865;HTU21D;64510;46.704;38.274;2023-06-10T05:39:29;25.27;56.29
75865;HTU21D;64510;46.704;38.274;2023-06-10T05:41:55;25.05;56.39
75865;HTU21D;64510;46.704;38.274;2023-06-10T05:44:23;24.88;57.16
75865;HTU21D;64510;46.704;38.274;2023-06-10T05:46:49;24.85;57.93
75865;HTU21D;64510;46.704;38.274;2023-06-10T05:49:15;24.93;57.70
75865;HTU21D;64510;46.704;38.274;2023-06-10T05:51:42;25.01;57.44
75865;HTU21D;64510;46.704;38.274;2023-06-10T05:54:07;25.00;57.27
75865;HTU21D;64510;46.704;38.274;2023-06-10T05:56:34;24.86;57.76
75865;HTU21D;64510;46.704;38.274;2023-06-10T05:59:00;24.84;58.15
75865;HTU21D;64510;46.704;38.274;2023-06-10T06:01:25;24.70;58.84
75865;HTU21D;64510;46.704;38.274;2023-06-10T06:03:51;24.65;59.41
75865;HTU21D;64510;46.704;38.274;2023-06-10T06:06:18;24.77;59.32
75865;HTU21D;64510;46.704;38.274;2023-06-10T06:08:46;24.95;58.99
75865;HTU21D;64510;46.704;38.274;2023-06-10T06:11:12;25.21;58.19
75865;HTU21D;64510;46.704;38.274;2023-06-10T06:13:39;25.37;57.84
75865;HTU21D;64510;46.704;38.274;2023-06-10T06:16:05;25.49;57.29
75865;HTU21D;64510;46.704;38.274;2023-06-10T06:18:30;25.46;57.10
75865;HTU21D;64510;46.704;38.274;2023-06-10T06:20:56;25.56;57.20
75865;HTU21D;64510;46.704;38.274;2023-06-10T06:23:22;25.78;56.71
75865;HTU21D;64510;46.704;38.274;2023-06-10T06:25:48;26.03;55.66
75865;HTU21D;64510;46.704;38.274;2023-06-10T06:28:14;26.18;54.27
75865;HTU21D;64510;46.704;38.274;2023-06-10T06:30:40;26.23;52.99
75865;HTU21D;64510;46.704;38.274;2023-06-10T06:33:06;26.30;52.37
75865;HTU21D;64510;46.704;38.274;2023-06-10T06:35:33;26.31;51.56
75865;HTU21D;64510;46.704;38.274;2023-06-10T06:37:59;26.27;51.05
75865;HTU21D;64510;46.704;38.274;2023-06-10T06:40:28;26.24;50.67
75865;HTU21D;64510;46.704;38.274;2023-06-10T06:42:54;26.07;50.18
75865;HTU21D;64510;46.704;38.274;2023-06-10T06:45:35;26.01;50.72
75865;HTU21D;64510;46.704;38.274;2023-06-10T06:48:01;25.99;50.88
75865;HTU21D;64510;46.704;38.274;2023-06-10T06:50:27;26.13;51.27
75865;HTU21D;64510;46.704;38.274;2023-06-10T06:52:53;26.42;51.37
75865;HTU21D;64510;46.704;38.274;2023-06-10T06:55:19;26.60;51.24
75865;HTU21D;64510;46.704;38.274;2023-06-10T06:57:45;26.56;50.95
75865;HTU21D;64510;46.704;38.274;2023-06-10T07:00:12;26.48;50.30
75865;HTU21D;64510;46.704;38.274;2023-06-10T07:02:38;26.47;50.52
75865;HTU21D;64510;46.704;38.274;2023-06-10T07:05:04;26.63;50.28
75865;HTU21D;64510;46.704;38.274;2023-06-10T07:07:31;26.58;50.21
75865;HTU21D;64510;46.704;38.274;2023-06-10T07:09:57;26.27;50.79
75865;HTU21D;64510;46.704;38.274;2023-06-10T07:12:23;25.88;51.35
75865;HTU21D;64510;46.704;38.274;2023-06-10T07:14:50;25.52;51.50
75865;HTU21D;64510;46.704;38.274;2023-06-10T07:17:17;25.22;52.17
75865;HTU21D;64510;46.704;38.274;2023-06-10T07:19:46;25.23;52.20
75865;HTU21D;64510;46.704;38.274;2023-06-10T07:22:11;25.24;51.91
75865;HTU21D;64510;46.704;38.274;2023-06-10T07:24:37;25.46;51.43
75865;HTU21D;64510;46.704;38.274;2023-06-10T07:27:04;25.79;51.11
75865;HTU21D;64510;46.704;38.274;2023-06-10T07:29:32;26.06;50.85
75865;HTU21D;64510;46.704;38.274;2023-06-10T07:31:57;26.06;51.03
75865;HTU21D;64510;46.704;38.274;2023-06-10T07:34:23;25.97;51.18
75865;HTU21D;64510;46.704;38.274;2023-06-10T07:36:49;25.81;50.83
75865;HTU21D;64510;46.704;38.274;2023-06-10T07:39:15;25.50;51.35
75865;HTU21D;64510;46.704;38.274;2023-06-10T07:41:41;25.25;52.21
75865;HTU21D;64510;46.704;38.274;2023-06-10T07:44:07;25.14;52.83
75865;HTU21D;64510;46.704;38.274;2023-06-10T07:46:33;25.05;53.30
75865;HTU21D;64510;46.704;38.274;2023-06-10T07:48:59;25.01;53.23
75865;HTU21D;64510;46.704;38.274;2023-06-10T07:51:25;25.01;53.17
75865;HTU21D;64510;46.704;38.274;2023-06-10T07:53:51;25.02;53.24
75865;HTU21D;64510;46.704;38.274;2023-06-10T07:56:16;25.14;53.24
75865;HTU21D;64510;46.704;38.274;2023-06-10T07:58:42;25.24;53.14
75865;HTU21D;64510;46.704;38.274;2023-06-10T08:01:08;25.39;52.99
75865;HTU21D;64510;46.704;38.274;2023-06-10T08:03:34;25.57;52.31
75865;HTU21D;64510;46.704;38.274;2023-06-10T08:06:00;25.59;52.01
75865;HTU21D;64510;46.704;38.274;2023-06-10T08:08:26;25.58;51.62
75865;HTU21D;64510;46.704;38.274;2023-06-10T08:10:52;25.52;51.72
75865;HTU21D;64510;46.704;38.274;2023-06-10T08:13:18;25.58;51.92
75865;HTU21D;64510;46.704;38.274;2023-06-10T08:15:44;25.71;51.69
75865;HTU21D;64510;46.704;38.274;2023-06-10T08:18:10;25.80;51.44
75865;HTU21D;64510;46.704;38.274;2023-06-10T08:20:36;25.79;51.19
75865;HTU21D;64510;46.704;38.274;2023-06-10T08:23:02;25.78;51.28
75865;HTU21D;64510;46.704;38.274;2023-06-10T08:25:28;25.82;51.22
75865;HTU21D;64510;46.704;38.274;2023-06-10T08:27:53;25.90;51.40
75865;HTU21D;64510;46.704;38.274;2023-06-10T08:30:22;26.06;51.50
75865;HTU21D;64510;46.704;38.274;2023-06-10T08:32:48;26.26;50.92
75865;HTU21D;64510;46.704;38.274;2023-06-10T08:35:14;26.27;51.04
75865;HTU21D;64510;46.704;38.274;2023-06-10T08:37:40;26.30;51.21
75865;HTU21D;64510;46.704;38.274;2023-06-10T08:40:06;26.39;51.24
75865;HTU21D;64510;46.704;38.274;2023-06-10T08:42:40;26.46;50.78
75865;HTU21D;64510;46.704;38.274;2023-06-10T08:45:13;26.49;50.54
75865;HTU21D;64510;46.704;38.274;2023-06-10T08:47:44;26.52;50.59
75865;HTU21D;64510;46.704;38.274;2023-06-10T08:50:12;26.53;50.81
75865;HTU21D;64510;46.704;38.274;2023-06-10T08:52:43;26.60;50.81
75865;HTU21D;64510;46.704;38.274;2023-06-10T08:55:13;26.64;51.27
75865;HTU21D;64510;46.704;38.274;2023-06-10T08:57:43;26.69;51.51
75865;HTU21D;64510;46.704;38.274;2023-06-10T09:00:11;26.61;51.86
75865;HTU21D;64510;46.704;38.274;2023-06-10T09:02:38;26.57;51.92
75865;HTU21D;64510;46.704;38.274;2023-06-10T09:05:04;26.55;52.28
75865;HTU21D;64510;46.704;38.274;2023-06-10T09:07:31;26.51;53.46
75865;HTU21D;64510;46.704;38.274;2023-06-10T09:09:57;26.40;55.36
75865;HTU21D;64510;46.704;38.274;2023-06-10T09:12:24;26.18;56.68
75865;HTU21D;64510;46.704;38.274;2023-06-10T09:14:50;26.07;57.37
75865;HTU21D;64510;46.704;38.274;2023-06-10T09:17:17;25.95;58.49
75865;HTU21D;64510;46.704;38.274;2023-06-10T09:19:44;25.93;59.04
75865;HTU21D;64510;46.704;38.274;2023-06-10T09:22:10;26.12;58.67
75865;HTU21D;64510;46.704;38.274;2023-06-10T09:24:37;26.60;57.58
75865;HTU21D;64510;46.704;38.274;2023-06-10T09:27:06;27.22;55.23
75865;HTU21D;64510;46.704;38.274;2023-06-10T09:32:31;27.97;51.65
75865;HTU21D;64510;46.704;38.274;2023-06-10T09:34:57;28.12;50.35
75865;HTU21D;64510;46.704;38.274;2023-06-10T09:37:24;28.09;50.31
75865;HTU21D;64510;46.704;38.274;2023-06-10T09:40:06;28.01;50.24
75865;HTU21D;64510;46.704;38.274;2023-06-10T09:42:34;28.00;50.14
75865;HTU21D;64510;46.704;38.274;2023-06-10T09:45:02;27.97;50.02
75865;HTU21D;64510;46.704;38.274;2023-06-10T09:47:28;27.98;50.51
75865;HTU21D;64510;46.704;38.274;2023-06-10T09:49:54;28.08;50.52
75865;HTU21D;64510;46.704;38.274;2023-06-10T09:52:24;28.18;49.76
75865;HTU21D;64510;46.704;38.274;2023-06-10T09:54:51;28.26;48.50
75865;HTU21D;64510;46.704;38.274;2023-06-10T09:57:18;28.30;48.21
75865;HTU21D;64510;46.704;38.274;2023-06-10T09:59:45;28.30;48.04
75865;HTU21D;64510;46.704;38.274;2023-06-10T10:02:15;28.30;47.94
75865;HTU21D;64510;46.704;38.274;2023-06-10T10:04:41;28.26;47.99
75865;HTU21D;64510;46.704;38.274;2023-06-10T10:07:08;28.15;48.17
75865;HTU21D;64510;46.704;38.274;2023-06-10T10:09:41;28.17;47.39
75865;HTU21D;64510;46.704;38.274;2023-06-10T10:12:11;28.13;47.60
75865;HTU21D;64510;46.704;38.274;2023-06-10T10:14:38;28.16;47.67
75865;HTU21D;64510;46.704;38.274;2023-06-10T10:17:07;28.23;47.52
75865;HTU21D;64510;46.704;38.274;2023-06-10T10:19:40;28.25;46.99
75865;HTU21D;64510;46.704;38.274;2023-06-10T10:22:15;28.24;46.59
75865;HTU21D;64510;46.704;38.274;2023-06-10T10:24:51;28.25;46.53
75865;HTU21D;64510;46.704;38.274;2023-06-10T10:27:26;28.25;46.56
75865;HTU21D;64510;46.704;38.274;2023-06-10T10:29:53;28.29;46.56
75865;HTU21D;64510;46.704;38.274;2023-06-10T10:32:28;28.18;46.87
75865;HTU21D;64510;46.704;38.274;2023-06-10T10:35:07;28.03;47.77
75865;HTU21D;64510;46.704;38.274;2023-06-10T10:37:35;27.95;48.01
75865;HTU21D;64510;46.704;38.274;2023-06-10T10:40:01;27.88;47.71
75865;HTU21D;64510;46.704;38.274;2023-06-10T10:42:29;27.88;47.40
75865;HTU21D;64510;46.704;38.274;2023-06-10T10:44:55;27.87;46.64
75865;HTU21D;64510;46.704;38.274;2023-06-10T10:47:22;27.87;46.28
75865;HTU21D;64510;46.704;38.274;2023-06-10T10:49:52;27.93;45.82
75865;HTU21D;64510;46.704;38.274;2023-06-10T10:52:19;27.87;45.85
75865;HTU21D;64510;46.704;38.274;2023-06-10T10:54:47;27.84;45.83
75865;HTU21D;64510;46.704;38.274;2023-06-10T10:59:59;27.85;45.89
75865;HTU21D;64510;46.704;38.274;2023-06-10T11:02:41;27.74;46.18
75865;HTU21D;64510;46.704;38.274;2023-06-10T11:05:13;27.58;46.66
75865;HTU21D;64510;46.704;38.274;2023-06-10T11:07:39;27.42;46.96
75865;HTU21D;64510;46.704;38.274;2023-06-10T11:10:07;27.32;47.18
75865;HTU21D;64510;46.704;38.274;2023-06-10T11:15:31;27.28;47.46
75865;HTU21D;64510;46.704;38.274;2023-06-10T11:18:28;27.22;48.14
75865;HTU21D;64510;46.704;38.274;2023-06-10T11:20:59;27.24;48.06
75865;HTU21D;64510;46.704;38.274;2023-06-10T11:23:30;27.27;47.90
75865;HTU21D;64510;46.704;38.274;2023-06-10T11:26:19;27.21;47.80
75865;HTU21D;64510;46.704;38.274;2023-06-10T11:31:22;27.08;48.18
75865;HTU21D;64510;46.704;38.274;2023-06-10T11:34:00;27.02;48.68
75865;HTU21D;64510;46.704;38.274;2023-06-10T11:36:27;26.98;48.63
75865;HTU21D;64510;46.704;38.274;2023-06-10T11:38:59;26.92;48.69
75865;HTU21D;64510;46.704;38.274;2023-06-10T11:41:26;26.87;48.89
75865;HTU21D;64510;46.704;38.274;2023-06-10T11:43:53;26.80;49.57
75865;HTU21D;64510;46.704;38.274;2023-06-10T11:46:21;26.78;49.53
75865;HTU21D;64510;46.704;38.274;2023-06-10T11:48:58;26.80;49.37
75865;HTU21D;64510;46.704;38.274;2023-06-10T11:51:31;26.77;49.46
75865;HTU21D;64510;46.704;38.274;2023-06-10T11:53:57;26.71;49.87
75865;HTU21D;64510;46.704;38.274;2023-06-10T11:56:28;26.69;50.33
75865;HTU21D;64510;46.704;38.274;2023-06-10T11:58:56;26.67;50.34
75865;HTU21D;64510;46.704;38.274;2023-06-10T12:01:24;26.66;50.17
75865;HTU21D;64510;46.704;38.274;2023-06-10T12:04:17;26.67;49.63
75865;HTU21D;64510;46.704;38.274;2023-06-10T12:06:53;26.67;49.18
75865;HTU21D;64510;46.704;38.274;2023-06-10T12:09:23;26.69;47.78
75865;HTU21D;64510;46.704;38.274;2023-06-10T12:11:52;26.79;47.06
75865;HTU21D;64510;46.704;38.274;2023-06-10T12:14:50;26.86;46.46
75865;HTU21D;64510;46.704;38.274;2023-06-10T12:17:21;26.87;46.93
75865;HTU21D;64510;46.704;38.274;2023-06-10T12:19:49;26.86;46.93
75865;HTU21D;64510;46.704;38.274;2023-06-10T12:22:15;26.83;46.74
75865;HTU21D;64510;46.704;38.274;2023-06-10T12:24:56;26.80;46.48
75865;HTU21D;64510;46.704;38.274;2023-06-10T12:27:23;26.78;46.70
75865;HTU21D;64510;46.704;38.274;2023-06-10T12:29:52;26.79;46.93
75865;HTU21D;64510;46.704;38.274;2023-06-10T12:32:21;26.75;46.89
75865;HTU21D;64510;46.704;38.274;2023-06-10T12:35:05;26.81;46.60
75865;HTU21D;64510;46.704;38.274;2023-06-10T12:37:32;26.96;46.41
75865;HTU21D;64510;46.704;38.274;2023-06-10T12:40:05;27.04;46.67
75865;HTU21D;64510;46.704;38.274;2023-06-10T12:42:40;27.00;46.80
75865;HTU21D;64510;46.704;38.274;2023-06-10T12:45:07;26.92;47.50
75865;HTU21D;64510;46.704;38.274;2023-06-10T12:47:37;26.83;47.98
75865;HTU21D;64510;46.704;38.274;2023-06-10T12:50:05;26.75;48.79
75865;HTU21D;64510;46.704;38.274;2023-06-10T12:52:31;26.66;49.19
75865;HTU21D;64510;46.704;38.274;2023-06-10T12:54:58;26.61;49.31
75865;HTU21D;64510;46.704;38.274;2023-06-10T12:57:24;26.60;49.25
75865;HTU21D;64510;46.704;38.274;2023-06-10T12:59:51;26.61;49.05
75865;HTU21D;64510;46.704;38.274;2023-06-10T13:02:22;26.61;48.40
75865;HTU21D;64510;46.704;38.274;2023-06-10T13:04:50;26.65;47.52
75865;HTU21D;64510;46.704;38.274;2023-06-10T13:07:17;26.71;47.13
75865;HTU21D;64510;46.704;38.274;2023-06-10T13:09:43;26.72;47.25
75865;HTU21D;64510;46.704;38.274;2023-06-10T13:12:09;26.71;47.41
75865;HTU21D;64510;46.704;38.274;2023-06-10T13:14:36;26.73;47.45
75865;HTU21D;64510;46.704;38.274;2023-06-10T13:17:05;26.72;47.10
75865;HTU21D;64510;46.704;38.274;2023-06-10T13:19:33;26.72;46.74
75865;HTU21D;64510;46.704;38.274;2023-06-10T13:21:59;26.71;46.38
75865;HTU21D;64510;46.704;38.274;2023-06-10T13:24:25;26.70;46.25
75865;HTU21D;64510;46.704;38.274;2023-06-10T13:26:53;26.67;46.35
75865;HTU21D;64510;46.704;38.274;2023-06-10T13:29:20;26.68;46.47
75865;HTU21D;64510;46.704;38.274;2023-06-10T13:31:46;26.63;46.89
75865;HTU21D;64510;46.704;38.274;2023-06-10T13:34:12;26.55;47.36
75865;HTU21D;64510;46.704;38.274;2023-06-10T13:36:38;26.49;47.88
75865;HTU21D;64510;46.704;38.274;2023-06-10T13:39:03;26.46;48.02
75865;HTU21D;64510;46.704;38.274;2023-06-10T13:41:29;26.45;48.14
75865;HTU21D;64510;46.704;38.274;2023-06-10T13:43:55;26.43;48.34
75865;HTU21D;64510;46.704;38.274;2023-06-10T13:46:21;26.40;48.76
75865;HTU21D;64510;46.704;38.274;2023-06-10T13:48:47;26.36;49.12
75865;HTU21D;64510;46.704;38.274;2023-06-10T13:51:13;26.30;49.70
75865;HTU21D;64510;46.704;38.274;2023-06-10T13:53:39;26.26;49.89
75865;HTU21D;64510;46.704;38.274;2023-06-10T13:56:05;26.23;49.99
75865;HTU21D;64510;46.704;38.274;2023-06-10T13:58:32;26.21;50.49
75865;HTU21D;64510;46.704;38.274;2023-06-10T14:01:04;26.13;50.94
75865;HTU21D;64510;46.704;38.274;2023-06-10T14:03:30;26.10;51.36
75865;HTU21D;64510;46.704;38.274;2023-06-10T14:05:56;26.04;52.01
75865;HTU21D;64510;46.704;38.274;2023-06-10T14:08:22;25.97;52.39
75865;HTU21D;64510;46.704;38.274;2023-06-10T14:10:49;25.95;52.50
75865;HTU21D;64510;46.704;38.274;2023-06-10T14:13:16;25.96;52.00
75865;HTU21D;64510;46.704;38.274;2023-06-10T14:15:43;26.03;51.37
75865;HTU21D;64510;46.704;38.274;2023-06-10T14:18:09;26.07;50.77
75865;HTU21D;64510;46.704;38.274;2023-06-10T14:20:35;26.13;50.52
75865;HTU21D;64510;46.704;38.274;2023-06-10T14:23:04;26.15;50.54
75865;HTU21D;64510;46.704;38.274;2023-06-10T14:25:30;26.15;50.73
75865;HTU21D;64510;46.704;38.274;2023-06-10T14:27:56;26.11;50.95
75865;HTU21D;64510;46.704;38.274;2023-06-10T14:30:23;26.08;51.22
75865;HTU21D;64510;46.704;38.274;2023-06-10T14:32:49;26.06;51.40
75865;HTU21D;64510;46.704;38.274;2023-06-10T14:35:15;26.04;51.56
75865;HTU21D;64510;46.704;38.274;2023-06-10T14:37:41;26.01;51.78
75865;HTU21D;64510;46.704;38.274;2023-06-10T14:40:07;25.97;51.98
75865;HTU21D;64510;46.704;38.274;2023-06-10T14:42:33;25.96;52.44
75865;HTU21D;64510;46.704;38.274;2023-06-10T14:44:59;25.92;53.11
75865;HTU21D;64510;46.704;38.274;2023-06-10T14:47:25;25.84;53.92
75865;HTU21D;64510;46.704;38.274;2023-06-10T14:49:51;25.77;54.81
75865;HTU21D;64510;46.704;38.274;2023-06-10T14:52:17;25.71;55.90
75865;HTU21D;64510;46.704;38.274;2023-06-10T14:54:43;25.61;56.36
75865;HTU21D;64510;46.704;38.274;2023-06-10T14:57:09;25.56;56.86
75865;HTU21D;64510;46.704;38.274;2023-06-10T14:59:36;25.46;57.33
75865;HTU21D;64510;46.704;38.274;2023-06-10T15:02:02;25.40;57.92
75865;HTU21D;64510;46.704;38.274;2023-06-10T15:04:28;25.36;57.76
75865;HTU21D;64510;46.704;38.274;2023-06-10T15:06:54;25.34;58.21
75865;HTU21D;64510;46.704;38.274;2023-06-10T15:09:20;25.29;58.35
75865;HTU21D;64510;46.704;38.274;2023-06-10T15:11:46;25.24;58.60
75865;HTU21D;64510;46.704;38.274;2023-06-10T15:14:12;25.19;59.09
75865;HTU21D;64510;46.704;38.274;2023-06-10T15:16:37;25.16;59.62
75865;HTU21D;64510;46.704;38.274;2023-06-10T15:19:03;25.10;60.57
75865;HTU21D;64510;46.704;38.274;2023-06-10T15:21:32;25.02;61.38